createdAt,value
2022-08-05T00:00:33.512Z,8.10
2022-08-05T00:02:52.994Z,7.83
2022-08-05T00:04:56.803Z,7.50
2022-08-05T00:07:01.312Z,8.20
2022-08-05T00:09:25.168Z,8.17
2022-08-05T00:11:49.404Z,7.80
2022-08-05T00:13:59.462Z,9.50
2022-08-05T00:16:08.487Z,9.33
2022-08-05T00:18:21.353Z,7.87
2022-08-05T00:20:29.116Z,8.43
2022-08-05T00:22:33.236Z,7.70
2022-08-05T00:24:37.365Z,8.60
2022-08-05T00:26:51.923Z,8.10
2022-08-05T00:28:55.502Z,8.33
2022-08-05T00:31:04.339Z,8.77
2022-08-05T00:34:42.317Z,12.03
2022-08-05T00:35:36.267Z,8.60
2022-08-05T00:37:53.943Z,8.00
2022-08-05T00:39:58.955Z,8.07
2022-08-05T00:42:03.410Z,10.77
2022-08-05T00:44:07.428Z,7.57
2022-08-05T00:46:13.381Z,8.07
2022-08-05T00:48:31.224Z,7.63
2022-08-05T00:50:36.813Z,8.10
2022-08-05T00:52:40.728Z,6.53
2022-08-05T00:54:44.187Z,8.30
2022-08-05T00:56:51.799Z,7.87
2022-08-05T00:58:56.538Z,8.30
2022-08-05T01:01:00.726Z,8.67
2022-08-05T01:03:07.817Z,6.63
2022-08-05T01:05:13.339Z,7.33
2022-08-05T01:07:17.908Z,8.40
2022-08-05T01:09:21.896Z,8.30
2022-08-05T01:11:36.833Z,8.33
2022-08-05T01:13:58.316Z,7.47
2022-08-05T01:16:06.370Z,8.17
2022-08-05T01:18:17.710Z,7.27
2022-08-05T01:20:32.967Z,8.37
2022-08-05T01:22:54.123Z,9.87
2022-08-05T01:25:40.199Z,7.90
2022-08-05T01:28:17.200Z,9.97
2022-08-05T01:30:21.490Z,9.10
2022-08-05T01:32:42.591Z,10.00
2022-08-05T01:34:52.735Z,9.10
2022-08-05T01:37:01.996Z,10.23
2022-08-05T01:39:06.404Z,9.03
2022-08-05T01:41:14.810Z,9.30
2022-08-05T01:43:22.303Z,8.40
2022-08-05T01:45:28.982Z,8.73
2022-08-05T01:47:43.450Z,8.17
2022-08-05T01:50:01.907Z,9.23
2022-08-05T01:52:17.473Z,8.90
2022-08-05T01:54:27.206Z,8.63
2022-08-05T01:58:12.555Z,8.27
2022-08-05T01:59:00.822Z,11.30
2022-08-05T02:01:06.066Z,9.33
2022-08-05T02:03:29.209Z,8.20
2022-08-05T02:05:38.441Z,8.17
2022-08-05T02:07:56.245Z,8.53
2022-08-05T02:10:08.022Z,8.63
2022-08-05T02:12:18.034Z,9.27
2022-08-05T02:14:32.127Z,7.20
2022-08-05T02:16:44.076Z,7.73
2022-08-05T02:18:54.487Z,20.07
2022-08-05T02:21:03.929Z,9.00
2022-08-05T02:23:11.167Z,8.13
2022-08-05T02:25:21.680Z,7.60
2022-08-05T02:27:30.173Z,8.57
2022-08-05T02:29:59.474Z,9.20
2022-08-05T02:32:05.943Z,10.30
2022-08-05T02:34:12.805Z,9.97
2022-08-05T02:36:20.930Z,10.10
2022-08-05T02:38:35.520Z,11.10
2022-08-05T02:40:42.508Z,10.33
2022-08-05T02:42:52.991Z,9.67
2022-08-05T02:45:02.078Z,10.80
2022-08-05T02:47:07.689Z,9.53
2022-08-05T02:49:13.317Z,10.50
2022-08-05T02:51:18.684Z,10.00
2022-08-05T02:53:39.468Z,9.87
2022-08-05T02:55:54.028Z,10.73
2022-08-05T02:58:20.176Z,11.23
2022-08-05T03:00:26.990Z,10.37
2022-08-05T03:02:35.748Z,9.67
2022-08-05T03:04:41.489Z,9.30
2022-08-05T03:06:54.363Z,9.37
2022-08-05T03:09:03.065Z,9.93
2022-08-05T03:11:57.366Z,9.23
2022-08-05T03:13:51.581Z,9.00
2022-08-05T03:16:08.381Z,7.70
2022-08-05T03:18:12.891Z,8.30
2022-08-05T03:20:21.116Z,8.03
2022-08-05T03:22:32.536Z,8.87
2022-08-05T03:24:36.624Z,9.00
2022-08-05T03:26:40.901Z,10.00
2022-08-05T03:28:44.877Z,8.40
2022-08-05T03:30:50.977Z,9.10
2022-08-05T03:33:01.346Z,8.27
2022-08-05T03:35:05.996Z,9.67
2022-08-05T03:37:09.889Z,8.83
2022-08-05T03:39:26.759Z,8.73
2022-08-05T03:41:32.939Z,8.93
2022-08-05T03:44:08.881Z,9.30
2022-08-05T03:46:01.686Z,9.23
2022-08-05T03:48:07.529Z,8.50
2022-08-05T03:50:12.208Z,10.97
2022-08-05T03:52:39.071Z,11.27
2022-08-05T03:55:34.603Z,9.90
2022-08-05T03:57:18.639Z,10.93
2022-08-05T03:59:29.100Z,9.17
2022-08-05T04:01:53.017Z,10.73
2022-08-05T04:04:10.111Z,14.43
2022-08-05T04:06:15.081Z,11.17
2022-08-05T04:08:34.892Z,9.43
2022-08-05T04:10:42.462Z,13.83
2022-08-05T04:12:46.947Z,8.63
2022-08-05T04:14:51.151Z,11.30
2022-08-05T04:16:55.276Z,8.77
2022-08-05T04:19:00.031Z,8.77
2022-08-05T04:21:07.066Z,10.20
2022-08-05T04:23:16.166Z,10.53
2022-08-05T04:25:20.086Z,10.80
2022-08-05T04:27:43.683Z,10.13
2022-08-05T04:30:03.827Z,10.60
2022-08-05T04:32:08.240Z,11.80
2022-08-05T04:34:32.968Z,9.07
2022-08-05T04:36:46.590Z,7.63
2022-08-05T04:38:55.292Z,13.50
2022-08-05T04:41:00.940Z,7.87
2022-08-05T04:43:11.114Z,8.33
2022-08-05T04:45:31.083Z,7.80
2022-08-05T04:47:47.226Z,8.27
2022-08-05T04:50:03.098Z,8.37
2022-08-05T04:52:16.388Z,12.53
2022-08-05T04:54:20.245Z,9.90
2022-08-05T04:56:35.237Z,10.40
2022-08-05T04:58:41.073Z,12.43
2022-08-05T05:00:45.508Z,8.53
2022-08-05T05:02:54.663Z,8.03
2022-08-05T05:05:02.394Z,7.37
2022-08-05T05:07:20.406Z,9.77
2022-08-05T05:09:33.177Z,11.70
2022-08-05T05:11:54.025Z,8.30
2022-08-05T05:13:59.508Z,11.20
2022-08-05T05:16:05.955Z,14.63
2022-08-05T05:18:11.158Z,12.30
2022-08-05T05:20:16.043Z,9.33
2022-08-05T05:22:26.507Z,13.83
2022-08-05T05:24:56.145Z,7.80
2022-08-05T05:26:55.897Z,7.10
2022-08-05T05:29:00.512Z,11.40
2022-08-05T05:31:05.778Z,8.83
2022-08-05T05:33:16.936Z,8.87
2022-08-05T05:35:22.949Z,10.57
2022-08-05T05:37:29.289Z,8.63
2022-08-05T05:39:43.286Z,10.00
2022-08-05T05:41:54.290Z,9.77
2022-08-05T05:44:00.245Z,8.83
2022-08-05T05:46:10.680Z,9.77
2022-08-05T05:48:19.648Z,8.43
2022-08-05T05:50:31.810Z,8.50
2022-08-05T05:52:40.658Z,8.50
2022-08-05T05:54:52.148Z,8.70
2022-08-05T05:56:55.900Z,10.40
2022-08-05T05:59:03.233Z,10.40
2022-08-05T06:01:13.109Z,9.03
2022-08-05T06:03:40.833Z,9.43
2022-08-05T06:05:42.728Z,8.70
2022-08-05T06:07:57.789Z,10.03
2022-08-05T06:10:10.458Z,8.60
2022-08-05T06:12:14.840Z,7.87
2022-08-05T06:14:20.540Z,9.00
2022-08-05T06:16:29.755Z,9.53
2022-08-05T06:18:39.356Z,9.60
2022-08-05T06:20:47.901Z,10.17
2022-08-05T06:22:58.006Z,8.47
2022-08-05T06:25:58.994Z,9.00
2022-08-05T06:28:10.473Z,7.80
2022-08-05T06:30:02.810Z,8.10
2022-08-05T06:32:25.037Z,7.90
2022-08-05T06:34:30.448Z,7.40
2022-08-05T06:36:53.451Z,7.53
2022-08-05T06:38:58.487Z,8.03
2022-08-05T06:41:02.795Z,10.30
2022-08-05T06:43:57.713Z,9.90
2022-08-05T06:46:03.346Z,7.50
2022-08-05T06:48:36.440Z,7.90
2022-08-05T06:50:20.812Z,10.57
2022-08-05T06:52:38.027Z,6.50
2022-08-05T06:54:43.980Z,6.07
2022-08-05T06:57:56.707Z,6.10
2022-08-05T06:59:21.015Z,5.93
2022-08-05T07:01:27.637Z,6.10
2022-08-05T07:03:36.767Z,11.77
2022-08-05T07:05:41.454Z,7.83
2022-08-05T07:07:49.216Z,6.47
2022-08-05T07:09:55.514Z,5.10
2022-08-05T07:12:02.662Z,5.20
2022-08-05T07:14:29.235Z,4.90
2022-08-05T07:18:00.691Z,10.73
2022-08-05T07:19:16.023Z,4.30
2022-08-05T07:22:00.795Z,4.67
2022-08-05T07:24:03.366Z,3.67
2022-08-05T07:26:18.399Z,4.40
2022-08-05T07:28:26.956Z,4.10
2022-08-05T07:30:32.806Z,4.50
2022-08-05T07:32:39.504Z,3.60
2022-08-05T07:34:43.506Z,3.50
2022-08-05T07:36:47.813Z,6.60
2022-08-05T07:38:55.431Z,2.57
2022-08-05T07:41:16.855Z,3.40
2022-08-05T07:43:23.662Z,2.47
2022-08-05T07:45:56.310Z,3.30
2022-08-05T07:47:55.786Z,2.90
2022-08-05T07:49:59.951Z,3.57
2022-08-05T07:52:03.973Z,3.00
2022-08-05T07:54:10.069Z,3.10
2022-08-05T07:57:02.704Z,3.63
2022-08-05T07:58:57.669Z,3.63
2022-08-05T08:01:04.209Z,2.67
2022-08-05T08:03:15.986Z,3.57
2022-08-05T08:05:20.352Z,3.80
2022-08-05T08:07:24.761Z,2.77
2022-08-05T08:09:32.640Z,2.93
2022-08-05T08:11:47.545Z,2.97
2022-08-05T08:14:00.873Z,2.67
2022-08-05T08:16:35.038Z,3.23
2022-08-05T08:18:31.331Z,4.93
2022-08-05T08:20:43.477Z,6.40
2022-08-05T08:22:53.730Z,2.83
2022-08-05T08:25:03.213Z,3.00
2022-08-05T08:27:08.055Z,2.60
2022-08-05T08:30:03.156Z,2.63
2022-08-05T08:31:36.126Z,3.20
2022-08-05T08:33:41.819Z,2.10
2022-08-05T08:35:53.764Z,2.83
2022-08-05T08:38:16.423Z,2.67
2022-08-05T08:40:22.350Z,2.00
2022-08-05T08:42:34.206Z,2.20
2022-08-05T08:45:19.194Z,6.57
2022-08-05T08:47:47.048Z,1.90
2022-08-05T08:50:22.603Z,4.00
2022-08-05T08:52:13.126Z,2.93
2022-08-05T08:54:20.545Z,2.53
2022-08-05T08:56:27.153Z,4.90
2022-08-05T08:58:43.155Z,2.90
2022-08-05T09:00:49.249Z,3.23
2022-08-05T09:02:55.448Z,2.67
2022-08-05T09:05:16.936Z,2.37
2022-08-05T09:07:29.203Z,3.10
2022-08-05T09:09:43.815Z,2.80
2022-08-05T09:11:52.767Z,3.20
2022-08-05T09:14:54.407Z,5.63
2022-08-05T09:16:26.801Z,4.83
2022-08-05T09:18:31.051Z,5.43
2022-08-05T09:20:37.866Z,5.77
2022-08-05T09:23:05.326Z,4.87
2022-08-05T09:25:14.027Z,3.33
2022-08-05T09:28:04.307Z,2.53
2022-08-05T09:29:57.552Z,2.60
2022-08-05T09:32:42.205Z,2.27
2022-08-05T09:34:48.143Z,2.70
2022-08-05T09:36:59.167Z,3.93
2022-08-05T09:39:17.952Z,2.60
2022-08-05T09:41:22.892Z,6.70
2022-08-05T09:43:41.073Z,2.00
2022-08-05T09:46:07.605Z,2.43
2022-08-05T09:48:26.854Z,5.23
2022-08-05T09:50:44.079Z,4.20
2022-08-05T09:52:59.704Z,2.73
2022-08-05T09:55:56.451Z,6.37
2022-08-05T09:57:35.387Z,2.43
2022-08-05T09:59:43.614Z,4.33
2022-08-05T10:01:48.262Z,3.80
2022-08-05T10:04:10.396Z,3.73
2022-08-05T10:06:15.928Z,4.00
2022-08-05T10:08:35.880Z,3.13
2022-08-05T10:10:50.112Z,2.67
2022-08-05T10:12:55.382Z,3.67
2022-08-05T10:15:17.044Z,2.23
2022-08-05T10:17:37.367Z,3.90
2022-08-05T10:20:03.651Z,3.10
2022-08-05T10:22:15.773Z,2.43
2022-08-05T10:24:35.413Z,2.73
2022-08-05T10:26:51.593Z,4.97
2022-08-05T10:28:56.641Z,2.30
2022-08-05T10:32:53.354Z,3.37
2022-08-05T10:33:29.005Z,2.57
2022-08-05T10:35:40.363Z,3.33
2022-08-05T10:37:49.216Z,2.60
2022-08-05T10:40:16.895Z,3.40
2022-08-05T10:42:32.358Z,9.23
2022-08-05T10:44:39.237Z,5.97
2022-08-05T10:46:46.744Z,3.73
2022-08-05T10:49:02.699Z,3.10
2022-08-05T10:51:21.879Z,2.57
2022-08-05T10:53:38.042Z,2.27
2022-08-05T10:56:07.935Z,5.03
2022-08-05T10:58:48.023Z,3.63
2022-08-05T11:00:55.389Z,2.53
2022-08-05T11:03:23.023Z,2.63
2022-08-05T11:05:31.518Z,2.10
2022-08-05T11:08:02.830Z,3.40
2022-08-05T11:10:10.295Z,4.13
2022-08-05T11:12:34.865Z,4.10
2022-08-05T11:15:11.920Z,2.93
2022-08-05T11:18:00.520Z,2.50
2022-08-05T11:20:17.176Z,2.73
2022-08-05T11:22:43.295Z,1.70
2022-08-05T11:25:37.301Z,2.23
2022-08-05T11:27:51.524Z,3.20
2022-08-05T11:30:03.414Z,2.90
2022-08-05T11:32:27.419Z,3.17
2022-08-05T11:34:39.257Z,2.60
2022-08-05T11:36:47.334Z,2.90
2022-08-05T11:38:57.819Z,4.03
2022-08-05T11:41:34.293Z,2.13
2022-08-05T11:43:58.464Z,2.30
2022-08-05T11:46:27.253Z,2.30
2022-08-05T11:48:17.393Z,3.93
2022-08-05T11:50:25.141Z,2.73
2022-08-05T11:52:29.936Z,3.27
2022-08-05T11:54:38.266Z,2.37
2022-08-05T11:56:50.274Z,2.50
2022-08-05T11:58:56.085Z,3.20
2022-08-05T12:01:10.587Z,2.63
2022-08-05T12:03:28.494Z,2.63
2022-08-05T12:05:36.244Z,2.67
2022-08-05T12:08:03.380Z,3.13
2022-08-05T12:10:11.621Z,2.57
2022-08-05T12:12:23.102Z,2.57
2022-08-05T12:14:38.160Z,2.50
2022-08-05T12:16:50.060Z,2.97
2022-08-05T12:18:55.685Z,2.30
2022-08-05T12:20:59.960Z,4.40
2022-08-05T12:23:10.912Z,2.63
2022-08-05T12:25:16.528Z,3.00
2022-08-05T12:27:25.436Z,2.67
2022-08-05T12:29:38.764Z,2.90
2022-08-05T12:31:49.785Z,4.43
2022-08-05T12:33:58.267Z,3.10
2022-08-05T12:36:03.679Z,3.50
2022-08-05T12:38:11.399Z,4.53
2022-08-05T12:40:26.711Z,3.77
2022-08-05T12:42:33.033Z,4.50
2022-08-05T12:44:37.531Z,5.03
2022-08-05T12:46:45.606Z,4.10
2022-08-05T12:48:49.974Z,3.60
2022-08-05T12:52:09.884Z,3.83
2022-08-05T12:53:44.171Z,2.77
2022-08-05T12:55:59.660Z,3.43
2022-08-05T12:58:50.933Z,7.93
2022-08-05T13:02:03.286Z,3.23
2022-08-05T13:02:55.769Z,3.37
2022-08-05T13:04:59.889Z,4.10
2022-08-05T13:07:10.269Z,4.53
2022-08-05T13:09:15.425Z,3.90
2022-08-05T13:12:02.655Z,3.43
2022-08-05T13:14:05.367Z,4.20
2022-08-05T13:16:16.858Z,2.97
2022-08-05T13:18:21.311Z,4.20
2022-08-05T13:20:35.867Z,3.47
2022-08-05T13:22:48.904Z,3.80
2022-08-05T13:24:58.209Z,3.93
2022-08-05T13:27:04.775Z,3.90
2022-08-05T13:29:09.086Z,3.60
2022-08-05T13:31:14.382Z,4.10
2022-08-05T13:34:21.749Z,4.00
2022-08-05T13:35:51.574Z,3.30
2022-08-05T13:37:57.340Z,5.30
2022-08-05T13:40:16.839Z,3.40
2022-08-05T13:42:31.533Z,3.80
2022-08-05T13:44:42.026Z,3.87
2022-08-05T13:47:02.229Z,3.97
2022-08-05T13:49:13.438Z,3.83
2022-08-05T13:51:17.505Z,5.57
2022-08-05T13:53:22.983Z,3.43
2022-08-05T13:55:41.561Z,3.80
2022-08-05T13:57:52.196Z,4.00
2022-08-05T13:59:59.345Z,3.90
2022-08-05T14:02:07.043Z,5.30
2022-08-05T14:04:28.470Z,5.40
2022-08-05T14:06:33.515Z,3.67
2022-08-05T14:08:42.154Z,4.70
2022-08-05T14:10:48.621Z,4.27
2022-08-05T14:12:54.578Z,4.17
2022-08-05T14:14:58.764Z,4.37
2022-08-05T14:17:03.316Z,5.10
2022-08-05T14:19:07.395Z,5.20
2022-08-05T14:22:07.372Z,5.27
2022-08-05T14:23:38.506Z,4.40
2022-08-05T14:25:45.189Z,5.00
2022-08-05T14:27:51.390Z,6.80
2022-08-05T14:29:56.267Z,7.73
2022-08-05T14:32:12.999Z,5.30
2022-08-05T14:34:23.692Z,7.33
2022-08-05T14:36:27.967Z,5.53
2022-08-05T14:38:35.784Z,7.63
2022-08-05T14:40:40.576Z,7.00
2022-08-05T14:42:50.600Z,5.30
2022-08-05T14:44:56.614Z,5.03
2022-08-05T14:47:00.863Z,5.10
2022-08-05T14:49:08.437Z,4.47
2022-08-05T14:51:15.461Z,5.70
2022-08-05T14:53:20.602Z,4.50
2022-08-05T14:55:38.421Z,6.27
2022-08-05T14:57:54.691Z,5.60
2022-08-05T15:00:01.648Z,4.90
2022-08-05T15:02:15.117Z,5.53
2022-08-05T15:04:22.278Z,6.20
2022-08-05T15:06:27.916Z,5.40
2022-08-05T15:08:58.035Z,5.20
2022-08-05T15:10:58.517Z,5.53
2022-08-05T15:13:04.797Z,5.80
2022-08-05T15:15:13.620Z,6.10
2022-08-05T15:17:47.754Z,6.90
2022-08-05T15:19:49.002Z,7.63
2022-08-05T15:21:53.744Z,5.63
2022-08-05T15:24:02.436Z,9.17
2022-08-05T15:26:06.972Z,5.50
2022-08-05T15:28:13.395Z,5.73
2022-08-05T15:30:20.821Z,6.83
2022-08-05T15:32:27.227Z,7.13
2022-08-05T15:34:33.999Z,5.40
2022-08-05T15:36:38.180Z,6.93
2022-08-05T15:38:42.407Z,11.80
2022-08-05T15:41:03.891Z,6.37
2022-08-05T15:43:19.857Z,8.13
2022-08-05T15:45:38.368Z,6.10
2022-08-05T15:47:43.277Z,14.13
2022-08-05T15:49:56.903Z,8.37
2022-08-05T15:52:16.369Z,8.63
2022-08-05T15:54:34.857Z,7.33
2022-08-05T15:56:41.329Z,11.47
2022-08-05T15:58:45.505Z,7.03
2022-08-05T16:01:12.031Z,5.83
2022-08-05T16:03:16.483Z,9.83
2022-08-05T16:05:20.566Z,6.83
2022-08-05T16:07:30.228Z,6.87
2022-08-05T16:09:35.298Z,6.20
2022-08-05T16:11:42.545Z,6.33
2022-08-05T16:13:48.954Z,6.10
2022-08-05T16:15:54.861Z,6.70
2022-08-05T16:17:59.721Z,12.03
2022-08-05T16:20:11.774Z,6.50
2022-08-05T16:22:16.269Z,6.80
2022-08-05T16:24:40.502Z,7.07
2022-08-05T16:26:54.657Z,6.80
2022-08-05T16:28:58.622Z,6.43
2022-08-05T16:31:04.950Z,6.13
2022-08-05T16:33:09.060Z,6.93
2022-08-05T16:35:13.409Z,5.70
2022-08-05T16:38:02.383Z,5.73
2022-08-05T16:40:05.831Z,7.53
2022-08-05T16:42:15.146Z,5.77
2022-08-05T16:44:22.314Z,6.90
2022-08-05T16:46:31.096Z,6.83
2022-08-05T16:48:36.763Z,6.23
2022-08-05T16:50:40.820Z,6.63
2022-08-05T16:52:46.105Z,15.93
2022-08-05T16:54:50.344Z,5.70
2022-08-05T16:56:54.839Z,6.67
2022-08-05T16:59:00.907Z,10.13
2022-08-05T17:01:10.361Z,9.00
2022-08-05T17:03:20.339Z,7.47
2022-08-05T17:05:25.318Z,6.47
2022-08-05T17:07:43.604Z,6.27
2022-08-05T17:09:58.121Z,6.73
2022-08-05T17:12:04.919Z,6.23
2022-08-05T17:14:09.139Z,6.23
2022-08-05T17:16:32.832Z,7.50
2022-08-05T17:18:39.241Z,6.07
2022-08-05T17:20:44.146Z,8.80
2022-08-05T17:22:55.410Z,6.43
2022-08-05T17:25:00.155Z,13.33
2022-08-05T17:27:05.231Z,6.47
2022-08-05T17:29:10.129Z,6.37
2022-08-05T17:31:24.024Z,6.43
2022-08-05T17:33:29.032Z,6.93
2022-08-05T17:36:08.840Z,6.73
2022-08-05T17:38:09.671Z,7.37
2022-08-05T17:40:15.920Z,6.30
2022-08-05T17:42:30.141Z,6.20
2022-08-05T17:44:36.517Z,6.40
2022-08-05T17:46:40.594Z,6.00
2022-08-05T17:48:47.612Z,6.40
2022-08-05T17:50:53.467Z,6.40
2022-08-05T17:52:58.945Z,6.30
2022-08-05T17:55:03.960Z,6.00
2022-08-05T17:57:14.298Z,5.70
2022-08-05T17:59:21.057Z,6.73
2022-08-05T18:01:26.968Z,5.87
2022-08-05T18:03:58.575Z,6.00
2022-08-05T18:06:01.828Z,6.63
2022-08-05T18:08:06.497Z,6.50
2022-08-05T18:10:20.409Z,6.47
2022-08-05T18:12:25.558Z,6.33
2022-08-05T18:14:29.503Z,6.80
2022-08-05T18:16:43.701Z,6.83
2022-08-05T18:18:56.001Z,7.00
2022-08-05T18:21:03.226Z,7.80
2022-08-05T18:23:12.059Z,7.70
2022-08-05T18:25:17.020Z,8.53
2022-08-05T18:27:21.074Z,8.30
2022-08-05T18:29:40.293Z,9.13
2022-08-05T18:31:45.590Z,7.07
2022-08-05T18:33:53.993Z,7.00
2022-08-05T18:36:04.920Z,10.43
2022-08-05T18:38:11.920Z,7.70
2022-08-05T18:40:33.907Z,7.40
2022-08-05T18:42:54.042Z,7.70
2022-08-05T18:44:58.017Z,7.23
2022-08-05T18:47:05.223Z,8.17
2022-08-05T18:49:30.426Z,6.93
2022-08-05T18:52:08.359Z,6.87
2022-08-05T18:54:13.121Z,5.97
2022-08-05T18:56:16.893Z,6.50
2022-08-05T18:58:27.196Z,8.60
2022-08-05T19:00:34.655Z,5.37
2022-08-05T19:02:39.035Z,5.23
2022-08-05T19:05:01.408Z,6.30
2022-08-05T19:07:08.608Z,6.87
2022-08-05T19:09:12.675Z,6.77
2022-08-05T19:11:23.358Z,6.20
2022-08-05T19:13:35.849Z,12.07
2022-08-05T19:15:59.137Z,6.90
2022-08-05T19:18:10.342Z,7.23
2022-08-05T19:20:17.634Z,9.73
2022-08-05T19:22:27.736Z,9.23
2022-08-05T19:24:34.626Z,7.37
2022-08-05T19:26:44.081Z,6.73
2022-08-05T19:28:58.695Z,6.07
2022-08-05T19:31:06.087Z,7.20
2022-08-05T19:33:16.725Z,9.90
2022-08-05T19:35:22.742Z,6.77
2022-08-05T19:37:47.061Z,7.13
2022-08-05T19:39:51.604Z,7.40
2022-08-05T19:42:06.873Z,12.57
2022-08-05T19:44:13.448Z,7.53
2022-08-05T19:46:29.251Z,8.97
2022-08-05T19:48:36.367Z,6.97
2022-08-05T19:50:40.512Z,8.40
2022-08-05T19:52:47.740Z,8.90
2022-08-05T19:54:51.902Z,7.63
2022-08-05T19:56:56.263Z,8.47
2022-08-05T19:59:51.013Z,8.00
2022-08-05T20:01:24.745Z,8.50
2022-08-05T20:03:40.845Z,7.97
2022-08-05T20:05:51.294Z,7.80
2022-08-05T20:07:59.086Z,8.40
2022-08-05T20:10:08.293Z,8.77
2022-08-05T20:12:18.265Z,7.43
2022-08-05T20:14:27.121Z,8.43
2022-08-05T20:16:31.078Z,12.07
2022-08-05T20:18:36.217Z,9.30
2022-08-05T20:20:44.426Z,10.10
2022-08-05T20:22:48.547Z,10.03
2022-08-05T20:24:55.414Z,9.67
2022-08-05T20:26:59.626Z,10.53
2022-08-05T20:29:03.626Z,9.63
2022-08-05T20:31:08.628Z,11.93
2022-08-05T20:33:12.376Z,10.20
2022-08-05T20:35:17.997Z,10.93
2022-08-05T20:38:06.669Z,9.27
2022-08-05T20:39:46.848Z,10.07
2022-08-05T20:41:57.135Z,10.70
2022-08-05T20:44:17.781Z,10.80
2022-08-05T20:46:28.556Z,10.30
2022-08-05T20:48:32.566Z,11.60
2022-08-05T20:50:40.887Z,12.23
2022-08-05T20:52:50.388Z,10.63
2022-08-05T20:55:54.246Z,10.73
2022-08-05T20:57:42.037Z,10.73
2022-08-05T21:00:10.375Z,11.47
2022-08-05T21:02:09.661Z,10.57
2022-08-05T21:04:14.651Z,11.20
2022-08-05T21:06:27.856Z,10.87
2022-08-05T21:08:41.690Z,11.40
2022-08-05T21:10:46.855Z,10.93
2022-08-05T21:13:08.790Z,10.83
2022-08-05T21:15:18.709Z,9.20
2022-08-05T21:17:22.413Z,10.97
2022-08-05T21:19:26.120Z,9.70
2022-08-05T21:21:44.204Z,11.03
2022-08-05T21:23:54.614Z,11.20
2022-08-05T21:25:59.206Z,11.50
2022-08-05T21:28:05.097Z,10.83
2022-08-05T21:30:11.188Z,10.70
2022-08-05T21:32:21.550Z,11.13
2022-08-05T21:34:26.255Z,10.50
2022-08-05T21:36:32.414Z,10.43
2022-08-05T21:38:40.359Z,11.53
2022-08-05T21:40:45.280Z,10.37
2022-08-05T21:42:51.870Z,10.80
2022-08-05T21:44:58.406Z,10.00
2022-08-05T21:47:04.173Z,13.70
2022-08-05T21:50:00.386Z,11.20
2022-08-05T21:52:26.832Z,12.50
2022-08-05T21:54:08.818Z,11.03
2022-08-05T21:56:16.829Z,11.10
2022-08-05T21:58:24.876Z,11.23
2022-08-05T22:00:37.079Z,12.27
2022-08-05T22:02:41.618Z,11.23
2022-08-05T22:04:46.422Z,13.90
2022-08-05T22:06:52.915Z,12.10
2022-08-05T22:08:56.500Z,10.73
2022-08-05T22:11:06.735Z,11.67
2022-08-05T22:14:19.746Z,11.43
2022-08-05T22:16:01.170Z,10.57
2022-08-05T22:18:02.466Z,10.40
2022-08-05T22:20:13.233Z,11.03
2022-08-05T22:22:26.642Z,11.20
2022-08-05T22:24:52.384Z,10.30
2022-08-05T22:27:17.278Z,9.57
2022-08-05T22:29:26.274Z,10.60
2022-08-05T22:31:44.943Z,10.50
2022-08-05T22:33:57.489Z,9.80
2022-08-05T22:36:08.938Z,10.80
2022-08-05T22:38:14.197Z,11.90
2022-08-05T22:40:20.422Z,11.70
2022-08-05T22:42:26.419Z,10.90
2022-08-05T22:44:31.443Z,10.27
2022-08-05T22:46:39.772Z,11.20
2022-08-05T22:48:44.727Z,10.80
2022-08-05T22:50:56.247Z,10.97
2022-08-05T22:53:01.243Z,10.87
2022-08-05T22:55:18.916Z,10.63
2022-08-05T22:57:24.366Z,11.27
2022-08-05T22:59:44.292Z,9.53
2022-08-05T23:02:05.710Z,9.40
2022-08-05T23:04:11.746Z,11.00
2022-08-05T23:06:15.898Z,9.57
2022-08-05T23:08:23.656Z,10.00
2022-08-05T23:10:29.640Z,9.67
2022-08-05T23:12:35.181Z,10.17
2022-08-05T23:14:40.466Z,9.10
2022-08-05T23:17:05.325Z,8.77
2022-08-05T23:19:11.237Z,8.27
2022-08-05T23:21:32.136Z,16.23
2022-08-05T23:23:47.274Z,8.67
2022-08-05T23:25:55.152Z,8.93
2022-08-05T23:28:00.795Z,7.83
2022-08-05T23:30:08.254Z,7.57
2022-08-05T23:32:15.301Z,8.47
2022-08-05T23:34:24.624Z,8.43
2022-08-05T23:36:28.584Z,7.70
2022-08-05T23:38:44.634Z,7.90
2022-08-05T23:40:50.024Z,7.67
2022-08-05T23:42:54.722Z,7.30
2022-08-05T23:44:58.616Z,6.97
2022-08-05T23:47:14.970Z,6.87
2022-08-05T23:49:33.919Z,6.90
2022-08-05T23:51:57.758Z,8.17
2022-08-05T23:54:01.580Z,6.13
2022-08-05T23:56:05.724Z,7.20
2022-08-05T23:58:31.287Z,6.07
